createdAt,value
2019-04-28T00:01:18.702Z,6.20
2019-04-28T00:04:03.329Z,6.10
2019-04-28T00:06:38.139Z,6.20
2019-04-28T00:09:13.496Z,6.20
2019-04-28T00:11:51.600Z,6.20
2019-04-28T00:14:26.773Z,6.20
2019-04-28T00:17:02.372Z,6.20
2019-04-28T00:19:44.106Z,6.20
2019-04-28T00:22:33.708Z,6.20
2019-04-28T00:25:33.840Z,6.30
2019-04-28T00:27:58.925Z,6.30
2019-04-28T00:30:27.344Z,6.30
2019-04-28T00:32:59.318Z,6.30
2019-04-28T00:35:31.902Z,6.20
2019-04-28T00:38:01.484Z,6.30
2019-04-28T00:40:33.890Z,6.30
2019-04-28T00:43:13.610Z,6.30
2019-04-28T00:45:54.362Z,6.20
2019-04-28T00:48:31.845Z,6.30
2019-04-28T00:51:08.947Z,6.20
2019-04-28T00:53:56.650Z,6.20
2019-04-28T00:56:28.504Z,6.20
2019-04-28T01:03:06.370Z,6.20
2019-04-28T01:05:41.194Z,6.20
2019-04-28T01:08:41.872Z,6.20
2019-04-28T01:11:17.695Z,6.20
2019-04-28T01:14:09.222Z,6.20
2019-04-28T01:16:44.367Z,6.20
2019-04-28T01:19:20.235Z,6.20
2019-04-28T01:22:06.189Z,6.20
2019-04-28T01:24:34.388Z,6.20
2019-04-28T01:27:02.108Z,6.10
2019-04-28T01:29:29.917Z,6.10
2019-04-28T01:32:18.209Z,6.20
2019-04-28T01:34:47.543Z,6.20
2019-04-28T01:37:15.226Z,6.20
2019-04-28T01:39:43.005Z,6.10
2019-04-28T01:42:10.732Z,6.20
2019-04-28T01:44:39.542Z,6.10
2019-04-28T01:47:07.364Z,6.10
2019-04-28T01:49:35.094Z,6.10
2019-04-28T01:52:03.185Z,6.10
2019-04-28T01:54:31.198Z,6.20
2019-04-28T01:57:01.347Z,6.20
2019-04-28T01:59:30.239Z,6.10
2019-04-28T02:02:00.154Z,6.10
2019-04-28T02:04:30.005Z,6.10
2019-04-28T02:06:59.662Z,6.20
2019-04-28T02:09:27.389Z,6.20
2019-04-28T02:11:55.016Z,6.10
2019-04-28T02:14:22.843Z,6.10
2019-04-28T02:16:50.471Z,6.10
2019-04-28T02:19:18.156Z,6.10
2019-04-28T02:21:59.382Z,6.20
2019-04-28T02:24:30.974Z,6.10
2019-04-28T02:27:00.841Z,6.10
2019-04-28T02:29:30.057Z,6.20
2019-04-28T02:32:02.081Z,6.20
2019-04-28T02:34:31.224Z,6.10
2019-04-28T02:37:01.019Z,6.10
2019-04-28T02:39:30.888Z,6.10
2019-04-28T02:41:57.694Z,6.10
2019-04-28T02:44:25.229Z,6.10
2019-04-28T02:46:52.945Z,6.10
2019-04-28T02:49:27.276Z,6.10
2019-04-28T02:52:14.513Z,6.00
2019-04-28T02:54:42.266Z,6.00
2019-04-28T02:57:10.765Z,6.00
2019-04-28T02:59:41.030Z,6.00
2019-04-28T03:02:10.628Z,5.90
2019-04-28T03:04:40.599Z,5.90
2019-04-28T03:07:07.640Z,5.90
2019-04-28T03:09:35.197Z,5.80
2019-04-28T03:12:02.864Z,5.80
2019-04-28T03:14:30.756Z,5.80
2019-04-28T03:17:00.778Z,5.70
2019-04-28T03:19:31.086Z,5.70
2019-04-28T03:21:57.562Z,5.70
2019-04-28T03:24:25.495Z,5.70
2019-04-28T03:27:13.940Z,5.60
2019-04-28T03:29:46.370Z,5.60
2019-04-28T03:32:45.879Z,5.60
2019-04-28T03:35:04.350Z,5.60
2019-04-28T03:37:32.286Z,5.60
2019-04-28T03:40:00.611Z,5.50
2019-04-28T03:42:31.138Z,5.50
2019-04-28T03:45:01.017Z,5.50
2019-04-28T03:47:31.115Z,5.40
2019-04-28T03:50:00.083Z,5.40
2019-04-28T03:52:27.985Z,5.40
2019-04-28T03:54:55.549Z,5.40
2019-04-28T03:57:24.392Z,5.40
2019-04-28T03:59:52.017Z,5.40
2019-04-28T04:02:23.043Z,5.30
2019-04-28T04:04:52.118Z,5.40
2019-04-28T04:07:21.219Z,5.30
2019-04-28T04:10:11.366Z,5.30
2019-04-28T04:12:50.906Z,5.20
2019-04-28T04:15:41.367Z,5.20
2019-04-28T04:18:12.901Z,5.20
2019-04-28T04:20:41.137Z,5.20
2019-04-28T04:23:11.315Z,5.20
2019-04-28T04:25:41.258Z,5.20
2019-04-28T04:28:10.554Z,5.10
2019-04-28T04:30:37.776Z,5.10
2019-04-28T04:33:06.543Z,5.10
2019-04-28T04:35:34.163Z,5.10
2019-04-28T04:38:02.184Z,5.10
2019-04-28T04:40:31.659Z,5.10
2019-04-28T04:43:01.583Z,5.00
2019-04-28T04:45:30.586Z,5.00
2019-04-28T04:48:00.577Z,5.00
2019-04-28T04:50:28.164Z,5.00
2019-04-28T04:52:55.811Z,5.00
2019-04-28T04:55:23.560Z,5.00
2019-04-28T04:57:51.089Z,5.00
2019-04-28T05:00:33.370Z,5.00
2019-04-28T05:03:07.844Z,5.00
2019-04-28T05:05:40.209Z,5.00
2019-04-28T05:08:10.528Z,5.00
2019-04-28T05:10:38.140Z,5.00
2019-04-28T05:13:05.825Z,5.00
2019-04-28T05:15:33.882Z,5.00
2019-04-28T05:18:01.934Z,5.10
2019-04-28T05:20:30.286Z,5.10
2019-04-28T05:23:04.935Z,5.10
2019-04-28T05:25:37.068Z,5.20
2019-04-28T05:28:04.769Z,5.20
2019-04-28T05:30:34.789Z,5.20
2019-04-28T05:33:02.102Z,5.30
2019-04-28T05:35:29.950Z,5.30
2019-04-28T05:37:59.315Z,5.40
2019-04-28T05:40:27.197Z,5.40
2019-04-28T05:42:58.019Z,5.50
2019-04-28T05:45:27.392Z,5.60
2019-04-28T05:47:55.998Z,5.60
2019-04-28T05:50:39.948Z,5.70
2019-04-28T05:53:12.793Z,5.80
2019-04-28T05:55:47.611Z,5.90
2019-04-28T05:58:23.119Z,6.00
2019-04-28T06:01:10.434Z,6.00
2019-04-28T06:03:40.426Z,6.10
2019-04-28T06:06:10.212Z,6.20
2019-04-28T06:09:02.058Z,6.30
2019-04-28T06:11:33.179Z,6.40
2019-04-28T06:14:00.820Z,6.50
2019-04-28T06:16:30.403Z,6.50
2019-04-28T06:19:00.052Z,6.60
2019-04-28T06:21:27.930Z,6.70
2019-04-28T06:23:55.600Z,6.80
2019-04-28T06:26:24.407Z,6.90
2019-04-28T06:28:52.064Z,7.00
2019-04-28T06:31:19.806Z,6.90
2019-04-28T06:33:48.551Z,7.00
2019-04-28T06:36:16.180Z,7.00
2019-04-28T06:38:43.875Z,7.10
2019-04-28T06:41:11.626Z,7.10
2019-04-28T06:43:39.400Z,7.20
2019-04-28T06:46:07.185Z,7.20
2019-04-28T06:48:34.851Z,7.30
2019-04-28T06:51:02.489Z,7.30
2019-04-28T06:53:30.403Z,7.40
2019-04-28T06:55:58.233Z,7.40
2019-04-28T06:58:26.014Z,7.50
2019-04-28T07:00:53.831Z,7.50
2019-04-28T07:03:23.316Z,7.50
2019-04-28T07:05:51.220Z,7.60
2019-04-28T07:08:18.881Z,7.70
2019-04-28T07:10:46.623Z,7.70
2019-04-28T07:13:14.372Z,7.70
2019-04-28T07:15:42.020Z,7.70
2019-04-28T07:18:09.435Z,7.60
2019-04-28T07:21:01.834Z,7.50
2019-04-28T07:23:29.678Z,7.40
2019-04-28T07:25:56.988Z,7.30
2019-04-28T07:28:24.196Z,7.20
2019-04-28T07:30:51.563Z,7.20
2019-04-28T07:33:20.199Z,7.20
2019-04-28T07:35:47.561Z,7.20
2019-04-28T07:38:14.930Z,7.20
2019-04-28T07:40:42.110Z,7.30
2019-04-28T07:43:09.459Z,7.30
2019-04-28T07:45:36.972Z,7.40
2019-04-28T07:48:04.318Z,7.50
2019-04-28T07:50:32.546Z,7.50
2019-04-28T07:53:06.286Z,7.60
2019-04-28T07:55:33.686Z,7.70
2019-04-28T07:58:00.992Z,7.80
2019-04-28T08:00:29.333Z,7.80
2019-04-28T08:02:56.738Z,7.90
2019-04-28T08:05:24.272Z,8.00
2019-04-28T08:07:51.743Z,8.10
2019-04-28T08:10:18.989Z,8.10
2019-04-28T08:12:49.048Z,8.20
2019-04-28T08:15:15.439Z,8.30
2019-04-28T08:17:42.732Z,8.30
2019-04-28T08:20:10.084Z,8.40
2019-04-28T08:22:37.722Z,8.40
2019-04-28T08:25:05.699Z,8.60
2019-04-28T08:27:33.065Z,8.70
2019-04-28T08:30:00.293Z,8.90
2019-04-28T08:32:34.048Z,9.00
2019-04-28T08:35:01.314Z,9.00
2019-04-28T08:37:28.678Z,9.00
2019-04-28T08:39:56.287Z,9.00
2019-04-28T08:42:23.594Z,9.00
2019-04-28T08:44:50.798Z,9.10
2019-04-28T08:47:18.163Z,9.10
2019-04-28T08:49:45.547Z,9.20
2019-04-28T08:52:12.890Z,9.20
2019-04-28T08:54:40.113Z,9.20
2019-04-28T08:57:07.317Z,9.30
2019-04-28T08:59:34.640Z,9.30
2019-04-28T09:02:02.016Z,9.40
2019-04-28T09:04:29.221Z,9.40
2019-04-28T09:06:56.616Z,9.40
2019-04-28T09:09:24.201Z,9.30
2019-04-28T09:11:51.446Z,9.40
2019-04-28T09:14:18.681Z,9.40
2019-04-28T09:16:46.497Z,9.40
2019-04-28T09:19:13.920Z,9.40
2019-04-28T09:21:41.251Z,9.40
2019-04-28T09:24:08.915Z,9.50
2019-04-28T09:26:37.132Z,9.50
2019-04-28T09:29:04.886Z,9.50
2019-04-28T09:31:32.125Z,9.50
2019-04-28T09:33:59.474Z,9.40
2019-04-28T09:36:26.782Z,9.50
2019-04-28T09:38:54.388Z,9.50
2019-04-28T09:41:21.743Z,9.50
2019-04-28T09:43:56.886Z,9.50
2019-04-28T09:46:32.576Z,9.50
2019-04-28T09:48:59.845Z,9.50
2019-04-28T09:51:27.257Z,9.50
2019-04-28T09:53:54.644Z,9.60
2019-04-28T09:56:22.021Z,9.80
2019-04-28T09:58:49.539Z,9.90
2019-04-28T10:01:16.972Z,10.00
2019-04-28T10:03:44.323Z,10.10
2019-04-28T10:06:11.666Z,10.10
2019-04-28T10:08:39.065Z,10.30
2019-04-28T10:11:06.266Z,10.40
2019-04-28T10:13:33.558Z,10.50
2019-04-28T10:16:00.811Z,10.50
2019-04-28T10:18:28.027Z,10.50
2019-04-28T10:20:55.360Z,10.50
2019-04-28T10:23:22.794Z,10.40
2019-04-28T10:25:51.160Z,10.40
2019-04-28T10:28:18.523Z,10.30
2019-04-28T10:30:46.388Z,10.20
2019-04-28T10:33:13.611Z,10.10
2019-04-28T10:35:41.289Z,10.00
2019-04-28T10:38:08.511Z,9.80
2019-04-28T10:40:49.095Z,9.60
2019-04-28T10:43:16.743Z,9.40
2019-04-28T10:45:46.193Z,9.20
2019-04-28T10:48:13.679Z,9.10
2019-04-28T10:50:41.097Z,8.70
2019-04-28T10:53:08.453Z,8.60
2019-04-28T10:55:35.814Z,8.60
2019-04-28T10:58:03.212Z,8.40
2019-04-28T11:00:32.537Z,8.30
2019-04-28T11:02:59.931Z,8.30
2019-04-28T11:05:36.158Z,8.20
2019-04-28T11:08:05.445Z,8.20
2019-04-28T11:10:32.642Z,8.20
2019-04-28T11:12:59.865Z,8.20
2019-04-28T11:15:31.790Z,8.20
2019-04-28T11:17:59.020Z,8.10
2019-04-28T11:20:26.473Z,8.20
2019-04-28T11:22:54.793Z,8.20
2019-04-28T11:25:22.241Z,8.20
2019-04-28T11:27:49.461Z,8.30
2019-04-28T11:30:18.212Z,8.40
2019-04-28T11:33:00.722Z,8.50
2019-04-28T11:35:30.133Z,8.70
2019-04-28T11:37:57.478Z,8.70
2019-04-28T11:40:24.991Z,8.80
2019-04-28T11:42:52.589Z,8.90
2019-04-28T11:45:19.869Z,9.00
2019-04-28T11:47:47.268Z,8.90
2019-04-28T11:50:14.730Z,9.00
2019-04-28T11:52:42.079Z,9.10
2019-04-28T11:55:09.818Z,9.10
2019-04-28T11:57:37.357Z,9.10
2019-04-28T12:00:13.550Z,9.20
2019-04-28T12:02:41.156Z,9.20
2019-04-28T12:05:08.778Z,9.30
2019-04-28T12:07:36.596Z,9.30
2019-04-28T12:10:11.440Z,9.30
2019-04-28T12:12:58.629Z,9.40
2019-04-28T12:15:57.382Z,9.50
2019-04-28T12:18:44.657Z,9.60
2019-04-28T12:21:11.976Z,9.70
2019-04-28T12:23:39.641Z,9.80
2019-04-28T12:26:06.911Z,10.00
2019-04-28T12:28:34.520Z,10.10
2019-04-28T12:31:01.898Z,10.20
2019-04-28T12:33:29.333Z,10.40
2019-04-28T12:35:56.985Z,10.30
2019-04-28T12:38:24.194Z,10.20
2019-04-28T12:40:51.796Z,10.10
2019-04-28T12:43:19.019Z,10.10
2019-04-28T12:45:46.436Z,10.10
2019-04-28T12:48:14.836Z,10.00
2019-04-28T12:50:47.429Z,9.90
2019-04-28T12:53:14.954Z,9.70
2019-04-28T12:55:42.554Z,9.50
2019-04-28T12:58:09.826Z,9.10
2019-04-28T13:00:46.735Z,9.00
2019-04-28T13:03:22.827Z,9.00
2019-04-28T13:06:00.851Z,8.90
2019-04-28T13:08:19.953Z,8.90
2019-04-28T13:10:47.182Z,8.80
2019-04-28T13:13:14.610Z,8.80
2019-04-28T13:15:41.789Z,8.80
2019-04-28T13:18:09.121Z,8.90
2019-04-28T13:20:36.525Z,8.80
2019-04-28T13:23:03.915Z,8.80
2019-04-28T13:25:31.117Z,8.90
2019-04-28T13:27:58.612Z,9.00
2019-04-28T13:30:26.352Z,9.10
2019-04-28T13:32:53.713Z,9.10
2019-04-28T13:35:21.003Z,9.10
2019-04-28T13:37:48.250Z,9.10
2019-04-28T13:40:22.254Z,9.20
2019-04-28T13:42:49.598Z,9.30
2019-04-28T13:45:19.739Z,9.40
2019-04-28T13:47:46.845Z,9.40
2019-04-28T13:50:19.417Z,9.40
2019-04-28T13:52:46.912Z,9.50
2019-04-28T13:55:38.361Z,9.60
2019-04-28T13:58:06.011Z,9.60
2019-04-28T14:00:45.060Z,9.60
2019-04-28T14:03:29.785Z,9.70
2019-04-28T14:06:03.650Z,9.80
2019-04-28T14:08:30.999Z,9.80
2019-04-28T14:10:58.258Z,9.80
2019-04-28T14:13:25.933Z,9.80
2019-04-28T14:15:53.336Z,9.90
2019-04-28T14:18:21.326Z,9.90
2019-04-28T14:20:48.505Z,9.90
2019-04-28T14:23:15.882Z,10.10
2019-04-28T14:25:43.212Z,10.20
2019-04-28T14:28:10.623Z,10.20
2019-04-28T14:30:37.905Z,10.30
2019-04-28T14:33:05.177Z,10.30
2019-04-28T14:35:32.815Z,10.40
2019-04-28T14:38:00.176Z,10.50
2019-04-28T14:40:27.735Z,10.50
2019-04-28T14:42:54.985Z,10.50
2019-04-28T14:45:22.435Z,10.60
2019-04-28T14:47:50.268Z,10.50
2019-04-28T14:50:17.675Z,10.50
2019-04-28T14:52:45.207Z,10.60
2019-04-28T14:55:12.933Z,10.70
2019-04-28T14:57:40.284Z,10.80
2019-04-28T15:00:09.131Z,10.90
2019-04-28T15:02:45.555Z,11.10
2019-04-28T15:05:19.461Z,11.10
2019-04-28T15:08:08.850Z,11.20
2019-04-28T15:10:59.678Z,11.30
2019-04-28T15:13:27.189Z,11.30
2019-04-28T15:15:54.516Z,11.30
2019-04-28T15:18:21.917Z,11.30
2019-04-28T15:20:49.397Z,11.30
2019-04-28T15:23:16.836Z,11.30
2019-04-28T15:25:44.135Z,11.30
2019-04-28T15:28:11.430Z,11.30
2019-04-28T15:30:38.715Z,11.30
2019-04-28T15:33:06.090Z,11.30
2019-04-28T15:35:33.451Z,11.30
2019-04-28T15:38:01.843Z,11.20
2019-04-28T15:40:29.329Z,11.20
2019-04-28T15:42:56.671Z,11.20
2019-04-28T15:45:24.041Z,11.20
2019-04-28T15:47:51.363Z,11.20
2019-04-28T15:50:18.822Z,11.20
2019-04-28T15:52:46.066Z,11.20
2019-04-28T15:55:16.142Z,11.20
2019-04-28T15:57:43.437Z,11.30
2019-04-28T16:00:12.360Z,11.40
2019-04-28T16:02:40.304Z,11.50
2019-04-28T16:05:07.803Z,11.50
2019-04-28T16:07:35.206Z,11.60
2019-04-28T16:10:04.280Z,11.70
2019-04-28T16:12:31.967Z,11.70
2019-04-28T16:14:59.613Z,11.70
2019-04-28T16:17:26.969Z,11.70
2019-04-28T16:19:54.362Z,11.70
2019-04-28T16:22:21.717Z,11.70
2019-04-28T16:24:49.051Z,11.60
2019-04-28T16:27:16.453Z,11.50
2019-04-28T16:29:43.642Z,11.50
2019-04-28T16:32:11.062Z,11.40
2019-04-28T16:34:38.961Z,11.40
2019-04-28T16:37:06.491Z,11.30
2019-04-28T16:39:33.941Z,11.30
2019-04-28T16:42:13.140Z,11.30
2019-04-28T16:44:50.422Z,11.20
2019-04-28T16:47:17.742Z,11.20
2019-04-28T16:49:45.140Z,11.20
2019-04-28T16:52:13.016Z,11.10
2019-04-28T16:54:41.051Z,11.10
2019-04-28T16:57:20.948Z,11.00
2019-04-28T17:00:07.857Z,11.00
2019-04-28T17:02:43.531Z,11.00
2019-04-28T17:05:11.059Z,10.90
2019-04-28T17:07:51.534Z,10.80
2019-04-28T17:10:07.967Z,10.80
2019-04-28T17:12:35.297Z,10.80
2019-04-28T17:15:03.299Z,10.80
2019-04-28T17:17:32.556Z,10.70
2019-04-28T17:20:00.044Z,10.70
2019-04-28T17:22:28.537Z,10.70
2019-04-28T17:24:55.867Z,10.60
2019-04-28T17:27:23.198Z,10.60
2019-04-28T17:29:51.281Z,10.60
2019-04-28T17:32:18.826Z,10.60
2019-04-28T17:34:46.296Z,10.50
2019-04-28T17:37:14.342Z,10.50
2019-04-28T17:39:41.718Z,10.50
2019-04-28T17:42:09.444Z,10.40
2019-04-28T17:44:36.874Z,10.30
2019-04-28T17:47:04.309Z,10.20
2019-04-28T17:49:37.980Z,10.10
2019-04-28T17:52:05.849Z,10.10
2019-04-28T17:54:33.526Z,10.00
2019-04-28T17:57:00.907Z,10.00
2019-04-28T17:59:28.321Z,10.00
2019-04-28T18:02:13.625Z,9.90
2019-04-28T18:04:48.679Z,9.90
2019-04-28T18:07:20.588Z,9.80
2019-04-28T18:09:48.049Z,9.80
2019-04-28T18:12:15.613Z,9.70
2019-04-28T18:14:44.779Z,9.70
2019-04-28T18:17:49.607Z,9.70
2019-04-28T18:20:17.230Z,9.60
2019-04-28T18:22:44.726Z,9.50
2019-04-28T18:25:12.270Z,9.50
2019-04-28T18:27:39.672Z,9.40
2019-04-28T18:30:07.089Z,9.50
2019-04-28T18:32:45.834Z,9.40
2019-04-28T18:35:28.432Z,9.40
2019-04-28T18:38:03.587Z,9.40
2019-04-28T18:40:50.525Z,9.30
2019-04-28T18:43:37.386Z,9.30
2019-04-28T18:46:04.705Z,9.30
2019-04-28T18:48:32.245Z,9.20
2019-04-28T18:50:59.805Z,9.30
2019-04-28T18:53:26.999Z,9.20
2019-04-28T18:55:54.357Z,9.10
2019-04-28T18:58:21.965Z,9.10
2019-04-28T19:00:58.131Z,9.10
2019-04-28T19:03:25.480Z,9.10
2019-04-28T19:05:53.503Z,9.10
2019-04-28T19:08:48.971Z,9.10
2019-04-28T19:11:32.962Z,9.10
2019-04-28T19:14:05.065Z,9.00
2019-04-28T19:16:54.841Z,9.00
2019-04-28T19:19:22.726Z,9.00
2019-04-28T19:21:56.565Z,8.90
2019-04-28T19:24:24.227Z,8.80
2019-04-28T19:26:51.514Z,8.80
2019-04-28T19:29:19.894Z,8.80
2019-04-28T19:31:47.189Z,8.80
2019-04-28T19:34:14.689Z,8.70
2019-04-28T19:36:42.422Z,8.70
2019-04-28T19:39:10.044Z,8.70
2019-04-28T19:41:39.228Z,8.60
2019-04-28T19:44:06.462Z,8.60
2019-04-28T19:46:33.651Z,8.60
2019-04-28T19:49:00.926Z,8.50
2019-04-28T19:51:32.004Z,8.60
2019-04-28T19:53:58.329Z,8.50
2019-04-28T19:56:32.329Z,8.50
2019-04-28T19:59:09.747Z,8.50
2019-04-28T20:01:37.380Z,8.50
2019-04-28T20:04:04.800Z,8.40
2019-04-28T20:06:32.754Z,8.30
2019-04-28T20:09:00.147Z,8.40
2019-04-28T20:11:27.402Z,8.30
2019-04-28T20:13:54.681Z,8.30
2019-04-28T20:16:22.342Z,8.30
2019-04-28T20:18:50.145Z,8.30
2019-04-28T20:21:18.078Z,8.20
2019-04-28T20:23:45.383Z,8.20
2019-04-28T20:26:13.808Z,8.20
2019-04-28T20:28:41.149Z,8.20
2019-04-28T20:31:08.720Z,8.20
2019-04-28T20:33:36.141Z,8.20
2019-04-28T20:36:10.015Z,8.20
2019-04-28T20:38:37.354Z,8.20
2019-04-28T20:41:30.354Z,8.20
2019-04-28T20:44:03.507Z,8.10
2019-04-28T20:46:31.302Z,8.20
2019-04-28T20:48:58.620Z,8.10
2019-04-28T20:51:25.856Z,8.10
2019-04-28T20:53:54.421Z,8.10
2019-04-28T20:56:21.727Z,8.10
2019-04-28T20:58:50.210Z,8.10
2019-04-28T21:01:17.677Z,8.10
2019-04-28T21:03:45.104Z,8.00
2019-04-28T21:06:12.192Z,8.10
2019-04-28T21:08:39.568Z,8.10
2019-04-28T21:11:06.859Z,8.00
2019-04-28T21:13:34.053Z,8.00
2019-04-28T21:16:01.841Z,8.00
2019-04-28T21:18:29.211Z,8.00
2019-04-28T21:20:56.622Z,8.00
2019-04-28T21:23:23.989Z,8.00
2019-04-28T21:25:51.205Z,8.00
2019-04-28T21:28:19.879Z,8.00
2019-04-28T21:30:47.091Z,8.00
2019-04-28T21:33:14.637Z,8.00
2019-04-28T21:35:41.857Z,7.90
2019-04-28T21:38:09.230Z,7.90
2019-04-28T21:40:37.169Z,7.90
2019-04-28T21:43:25.031Z,7.90
2019-04-28T21:46:05.196Z,7.90
2019-04-28T21:48:55.109Z,7.90
2019-04-28T21:51:22.470Z,7.90
2019-04-28T21:53:49.794Z,7.90
2019-04-28T21:56:17.189Z,7.90
2019-04-28T21:58:44.497Z,7.90
2019-04-28T22:01:16.385Z,7.90
2019-04-28T22:03:45.561Z,7.80
2019-04-28T22:06:12.795Z,7.80
2019-04-28T22:08:40.225Z,7.80
2019-04-28T22:11:07.581Z,7.80
2019-04-28T22:13:35.306Z,7.80
2019-04-28T22:16:02.672Z,7.80
2019-04-28T22:18:30.037Z,7.70
2019-04-28T22:20:57.437Z,7.80
2019-04-28T22:23:33.524Z,7.70
2019-04-28T22:26:01.169Z,7.70
2019-04-28T22:28:28.379Z,7.70
2019-04-28T22:30:55.777Z,7.60
2019-04-28T22:33:23.310Z,7.60
2019-04-28T22:35:50.915Z,7.60
2019-04-28T22:38:18.303Z,7.60
2019-04-28T22:40:45.609Z,7.50
2019-04-28T22:43:12.975Z,7.50
2019-04-28T22:45:40.454Z,7.50
2019-04-28T22:48:09.697Z,7.50
2019-04-28T22:50:38.891Z,7.50
2019-04-28T22:53:06.262Z,7.50
2019-04-28T22:55:37.228Z,7.50
2019-04-28T22:58:35.844Z,7.50
2019-04-28T23:01:28.658Z,7.50
2019-04-28T23:04:01.864Z,7.40
2019-04-28T23:06:29.227Z,7.40
2019-04-28T23:08:56.518Z,7.40
2019-04-28T23:11:24.010Z,7.40
2019-04-28T23:13:51.272Z,7.40
2019-04-28T23:16:18.492Z,7.40
2019-04-28T23:18:46.211Z,7.30
2019-04-28T23:21:22.180Z,7.30
2019-04-28T23:23:50.739Z,7.30
2019-04-28T23:26:17.919Z,7.30
2019-04-28T23:28:45.256Z,7.30
2019-04-28T23:31:12.621Z,7.30
2019-04-28T23:33:39.979Z,7.30
2019-04-28T23:36:07.361Z,7.20
2019-04-28T23:38:34.782Z,7.20
2019-04-28T23:41:10.704Z,7.10
2019-04-28T23:43:38.021Z,7.10
2019-04-28T23:46:05.275Z,7.10
2019-04-28T23:48:32.534Z,7.00
2019-04-28T23:51:13.654Z,7.00
2019-04-28T23:53:59.129Z,6.90
2019-04-28T23:56:26.346Z,6.90
2019-04-28T23:58:53.449Z,6.90
